sensor_id;sensor_type;location;lat;lon;timestamp;pressure;altitude;pressure_sealevel;temperature;humidity
32109;BME280;18624;50.042;8.436;2023-01-19T00:00:27;99362.22;;;-0.68;97.93
32109;BME280;18624;50.042;8.436;2023-01-19T00:02:53;99372.22;;;-0.68;98.59
32109;BME280;18624;50.042;8.436;2023-01-19T00:05:20;99363.00;;;-0.71;99.06
32109;BME280;18624;50.042;8.436;2023-01-19T00:07:47;99367.28;;;-0.63;98.00
32109;BME280;18624;50.042;8.436;2023-01-19T00:10:13;99369.56;;;-0.65;97.87
32109;BME280;18624;50.042;8.436;2023-01-19T00:12:40;99378.41;;;-0.61;98.14
32109;BME280;18624;50.042;8.436;2023-01-19T00:15:06;99393.38;;;-0.63;98.08
32109;BME280;18624;50.042;8.436;2023-01-19T00:17:33;99379.16;;;-0.64;97.64
32109;BME280;18624;50.042;8.436;2023-01-19T00:19:59;99383.41;;;-0.66;98.20
32109;BME280;18624;50.042;8.436;2023-01-19T00:22:26;99377.19;;;-0.74;97.41
32109;BME280;18624;50.042;8.436;2023-01-19T00:24:52;99385.28;;;-0.70;97.57
32109;BME280;18624;50.042;8.436;2023-01-19T00:27:19;99387.56;;;-0.72;97.74
32109;BME280;18624;50.042;8.436;2023-01-19T00:29:45;99391.78;;;-0.79;98.02
32109;BME280;18624;50.042;8.436;2023-01-19T00:32:12;99377.88;;;-0.88;98.00
32109;BME280;18624;50.042;8.436;2023-01-19T00:34:38;99364.38;;;-0.95;98.43
32109;BME280;18624;50.042;8.436;2023-01-19T00:37:08;99383.28;;;-0.84;98.47
32109;BME280;18624;50.042;8.436;2023-01-19T00:39:35;99387.91;;;-0.85;98.22
32109;BME280;18624;50.042;8.436;2023-01-19T00:42:01;99385.97;;;-0.84;98.10
32109;BME280;18624;50.042;8.436;2023-01-19T00:44:46;99385.91;;;-0.95;98.10
32109;BME280;18624;50.042;8.436;2023-01-19T00:47:13;99397.84;;;-0.92;98.57
32109;BME280;18624;50.042;8.436;2023-01-19T00:49:39;99385.53;;;-0.93;98.60
32109;BME280;18624;50.042;8.436;2023-01-19T00:52:06;99397.50;;;-0.87;98.69
32109;BME280;18624;50.042;8.436;2023-01-19T00:54:32;99400.91;;;-0.90;98.94
32109;BME280;18624;50.042;8.436;2023-01-19T00:56:58;99394.00;;;-0.91;99.12
32109;BME280;18624;50.042;8.436;2023-01-19T00:59:25;99400.16;;;-0.91;99.24
32109;BME280;18624;50.042;8.436;2023-01-19T01:01:51;99403.22;;;-0.92;99.37
32109;BME280;18624;50.042;8.436;2023-01-19T01:04:18;99402.84;;;-0.94;99.60
32109;BME280;18624;50.042;8.436;2023-01-19T01:06:44;99405.59;;;-0.84;100.00
32109;BME280;18624;50.042;8.436;2023-01-19T01:09:11;99404.81;;;-0.84;99.62
32109;BME280;18624;50.042;8.436;2023-01-19T01:11:39;99418.28;;;-0.84;99.97
32109;BME280;18624;50.042;8.436;2023-01-19T01:14:06;99380.88;;;-1.00;100.00
32109;BME280;18624;50.042;8.436;2023-01-19T01:16:33;99421.00;;;-0.81;100.00
32109;BME280;18624;50.042;8.436;2023-01-19T01:18:59;99427.53;;;-0.78;100.00
32109;BME280;18624;50.042;8.436;2023-01-19T01:21:26;99423.66;;;-0.84;100.00
32109;BME280;18624;50.042;8.436;2023-01-19T01:23:52;99417.50;;;-0.81;100.00
32109;BME280;18624;50.042;8.436;2023-01-19T01:26:18;99426.00;;;-0.79;100.00
32109;BME280;18624;50.042;8.436;2023-01-19T01:28:45;99428.28;;;-0.78;100.00
32109;BME280;18624;50.042;8.436;2023-01-19T01:31:11;99426.34;;;-0.84;100.00
32109;BME280;18624;50.042;8.436;2023-01-19T01:33:38;99431.41;;;-0.75;100.00
32109;BME280;18624;50.042;8.436;2023-01-19T01:36:08;99428.72;;;-0.75;100.00
32109;BME280;18624;50.042;8.436;2023-01-19T01:38:34;99430.97;;;-0.78;100.00
32109;BME280;18624;50.042;8.436;2023-01-19T01:41:01;99444.41;;;-0.81;100.00
32109;BME280;18624;50.042;8.436;2023-01-19T01:43:48;99444.78;;;-0.83;100.00
32109;BME280;18624;50.042;8.436;2023-01-19T01:46:15;99441.34;;;-0.83;100.00
32109;BME280;18624;50.042;8.436;2023-01-19T01:48:54;99438.25;;;-0.85;100.00
32109;BME280;18624;50.042;8.436;2023-01-19T01:51:32;99438.31;;;-0.74;100.00
32109;BME280;18624;50.042;8.436;2023-01-19T01:54:11;99438.31;;;-0.74;100.00
32109;BME280;18624;50.042;8.436;2023-01-19T01:56:42;99429.06;;;-0.77;100.00
32109;BME280;18624;50.042;8.436;2023-01-19T01:59:14;99438.72;;;-0.76;100.00
32109;BME280;18624;50.042;8.436;2023-01-19T02:01:52;99438.28;;;-0.78;100.00
32109;BME280;18624;50.042;8.436;2023-01-19T02:04:39;99434.09;;;-0.75;100.00
32109;BME280;18624;50.042;8.436;2023-01-19T02:07:13;99442.94;;;-0.75;100.00
32109;BME280;18624;50.042;8.436;2023-01-19T02:10:00;99453.28;;;-0.77;100.00
32109;BME280;18624;50.042;8.436;2023-01-19T02:12:45;99456.75;;;-0.80;100.00
32109;BME280;18624;50.042;8.436;2023-01-19T02:15:31;99457.09;;;-0.82;100.00
32109;BME280;18624;50.042;8.436;2023-01-19T02:17:57;99463.25;;;-0.81;100.00
32109;BME280;18624;50.042;8.436;2023-01-19T02:20:26;99461.31;;;-0.84;100.00
32109;BME280;18624;50.042;8.436;2023-01-19T02:22:59;99455.97;;;-0.81;100.00
32109;BME280;18624;50.042;8.436;2023-01-19T02:25:28;99455.63;;;-0.75;100.00
32109;BME280;18624;50.042;8.436;2023-01-19T02:27:55;99362.63;;;-1.28;100.00
32109;BME280;18624;50.042;8.436;2023-01-19T02:30:22;99410.56;;;-0.89;100.00
32109;BME280;18624;50.042;8.436;2023-01-19T02:32:49;99440.28;;;-0.68;100.00
32109;BME280;18624;50.042;8.436;2023-01-19T02:35:16;99380.84;;;-1.07;100.00
32109;BME280;18624;50.042;8.436;2023-01-19T02:37:44;99443.75;;;-0.67;100.00
32109;BME280;18624;50.042;8.436;2023-01-19T02:40:13;99435.25;;;-0.77;100.00
32109;BME280;18624;50.042;8.436;2023-01-19T02:42:42;99438.31;;;-0.74;100.00
32109;BME280;18624;50.042;8.436;2023-01-19T02:45:13;99402.03;;;-0.98;100.00
32109;BME280;18624;50.042;8.436;2023-01-19T02:47:49;99434.84;;;-0.75;100.00
32109;BME280;18624;50.042;8.436;2023-01-19T02:50:38;99438.63;;;-0.87;100.00
32109;BME280;18624;50.042;8.436;2023-01-19T02:56:02;99433.09;;;-1.05;100.00
32109;BME280;18624;50.042;8.436;2023-01-19T03:04:16;99352.00;;;-1.62;100.00
32109;BME280;18624;50.042;8.436;2023-01-19T03:06:52;99423.44;;;-1.16;100.00
32109;BME280;18624;50.042;8.436;2023-01-19T03:12:03;99427.69;;;-1.12;100.00
32109;BME280;18624;50.042;8.436;2023-01-19T03:14:39;99424.22;;;-1.09;100.00
32109;BME280;18624;50.042;8.436;2023-01-19T03:17:08;99277.53;;;-2.09;100.00
32109;BME280;18624;50.042;8.436;2023-01-19T03:19:40;99370.53;;;-1.49;100.00
32109;BME280;18624;50.042;8.436;2023-01-19T03:22:19;99430.78;;;-1.06;100.00
32109;BME280;18624;50.042;8.436;2023-01-19T03:24:49;99428.50;;;-1.08;100.00
32109;BME280;18624;50.042;8.436;2023-01-19T03:27:24;99423.47;;;-1.09;100.00
32109;BME280;18624;50.042;8.436;2023-01-19T03:29:59;99326.19;;;-1.73;100.00
32109;BME280;18624;50.042;8.436;2023-01-19T03:32:31;99409.56;;;-1.18;100.00
32109;BME280;18624;50.042;8.436;2023-01-19T03:35:05;99307.28;;;-1.84;100.00
32109;BME280;18624;50.042;8.436;2023-01-19T03:37:38;99390.31;;;-1.24;100.00
32109;BME280;18624;50.042;8.436;2023-01-19T03:40:07;99425.81;;;-1.04;100.00
32109;BME280;18624;50.042;8.436;2023-01-19T03:42:35;99427.38;;;-1.03;100.00
32109;BME280;18624;50.042;8.436;2023-01-19T03:45:03;99420.09;;;-0.99;100.00
32109;BME280;18624;50.042;8.436;2023-01-19T03:47:30;99394.91;;;-1.28;100.00
32109;BME280;18624;50.042;8.436;2023-01-19T03:49:58;99426.63;;;-0.96;100.00
32109;BME280;18624;50.042;8.436;2023-01-19T03:52:31;99350.94;;;-1.50;100.00
32109;BME280;18624;50.042;8.436;2023-01-19T03:55:00;99445.13;;;-0.91;100.00
32109;BME280;18624;50.042;8.436;2023-01-19T03:57:27;99332.09;;;-1.57;100.00
32109;BME280;18624;50.042;8.436;2023-01-19T03:59:53;99416.63;;;-1.03;100.00
32109;BME280;18624;50.042;8.436;2023-01-19T04:02:21;99393.50;;;-1.11;100.00
32109;BME280;18624;50.042;8.436;2023-01-19T04:04:48;99430.97;;;-0.78;100.00
32109;BME280;18624;50.042;8.436;2023-01-19T04:07:15;99428.31;;;-0.74;100.00
32109;BME280;18624;50.042;8.436;2023-01-19T04:09:41;99360.75;;;-1.24;100.00
32109;BME280;18624;50.042;8.436;2023-01-19T04:12:08;99420.16;;;-0.88;100.00
32109;BME280;18624;50.042;8.436;2023-01-19T04:14:35;99397.81;;;-0.96;100.00
32109;BME280;18624;50.042;8.436;2023-01-19T04:17:01;99437.97;;;-0.69;100.00
32109;BME280;18624;50.042;8.436;2023-01-19T04:19:28;99446.03;;;-0.69;100.00
32109;BME280;18624;50.042;8.436;2023-01-19T04:21:54;99449.50;;;-0.69;100.00
32109;BME280;18624;50.042;8.436;2023-01-19T04:24:22;99431.00;;;-0.74;100.00
32109;BME280;18624;50.042;8.436;2023-01-19T04:26:50;99436.06;;;-0.65;100.00
32109;BME280;18624;50.042;8.436;2023-01-19T04:29:18;99443.75;;;-0.64;100.00
32109;BME280;18624;50.042;8.436;2023-01-19T04:31:45;99439.56;;;-0.61;100.00
32109;BME280;18624;50.042;8.436;2023-01-19T04:34:11;99449.16;;;-0.67;100.00
32109;BME280;18624;50.042;8.436;2023-01-19T04:36:38;99449.06;;;-0.78;100.00
32109;BME280;18624;50.042;8.436;2023-01-19T04:39:04;99405.38;;;-1.16;100.00
32109;BME280;18624;50.042;8.436;2023-01-19T04:41:31;99428.53;;;-1.00;100.00
32109;BME280;18624;50.042;8.436;2023-01-19T04:43:58;99328.56;;;-1.65;100.00
32109;BME280;18624;50.042;8.436;2023-01-19T04:46:24;99446.69;;;-0.87;100.00
32109;BME280;18624;50.042;8.436;2023-01-19T04:48:51;99440.50;;;-0.91;100.00
32109;BME280;18624;50.042;8.436;2023-01-19T04:51:17;99454.34;;;-0.92;100.00
32109;BME280;18624;50.042;8.436;2023-01-19T04:53:44;99368.97;;;-1.50;100.00
32109;BME280;18624;50.042;8.436;2023-01-19T04:56:11;99444.06;;;-0.80;100.00
32109;BME280;18624;50.042;8.436;2023-01-19T04:58:37;99436.34;;;-0.81;100.00
32109;BME280;18624;50.042;8.436;2023-01-19T05:01:07;99463.59;;;-0.86;100.00
32109;BME280;18624;50.042;8.436;2023-01-19T05:03:34;99288.75;;;-1.96;100.00
32109;BME280;18624;50.042;8.436;2023-01-19T05:06:01;99447.81;;;-0.91;100.00
32109;BME280;18624;50.042;8.436;2023-01-19T05:08:27;99444.38;;;-0.88;100.00
32109;BME280;18624;50.042;8.436;2023-01-19T05:10:54;99449.78;;;-0.81;100.00
32109;BME280;18624;50.042;8.436;2023-01-19T05:13:22;99432.53;;;-0.80;100.00
32109;BME280;18624;50.042;8.436;2023-01-19T05:15:49;99440.56;;;-0.84;100.00
32109;BME280;18624;50.042;8.436;2023-01-19T05:18:16;99442.06;;;-0.86;100.00
32109;BME280;18624;50.042;8.436;2023-01-19T05:20:43;99437.47;;;-0.86;100.00
32109;BME280;18624;50.042;8.436;2023-01-19T05:23:09;99440.22;;;-0.79;100.00
32109;BME280;18624;50.042;8.436;2023-01-19T05:25:36;99452.53;;;-0.74;100.00
32109;BME280;18624;50.042;8.436;2023-01-19T05:28:02;99449.13;;;-0.71;100.00
32109;BME280;18624;50.042;8.436;2023-01-19T05:30:29;99388.53;;;-1.06;100.00
32109;BME280;18624;50.042;8.436;2023-01-19T05:32:55;99451.09;;;-0.61;100.00
32109;BME280;18624;50.042;8.436;2023-01-19T05:35:21;99453.44;;;-0.56;100.00
32109;BME280;18624;50.042;8.436;2023-01-19T05:38:01;99463.44;;;-0.53;100.00
32109;BME280;18624;50.042;8.436;2023-01-19T05:40:27;99450.78;;;-0.48;100.00
32109;BME280;18624;50.042;8.436;2023-01-19T05:42:53;99452.34;;;-0.44;100.00
32109;BME280;18624;50.042;8.436;2023-01-19T05:45:20;99450.81;;;-0.45;100.00
32109;BME280;18624;50.042;8.436;2023-01-19T05:47:46;99456.97;;;-0.44;100.00
32109;BME280;18624;50.042;8.436;2023-01-19T05:50:13;99466.59;;;-0.43;100.00
32109;BME280;18624;50.042;8.436;2023-01-19T05:52:39;99465.44;;;-0.42;100.00
32109;BME280;18624;50.042;8.436;2023-01-19T05:55:06;99464.28;;;-0.45;100.00
32109;BME280;18624;50.042;8.436;2023-01-19T05:57:33;99479.69;;;-0.38;100.00
32109;BME280;18624;50.042;8.436;2023-01-19T06:00:00;99475.84;;;-0.37;100.00
32109;BME280;18624;50.042;8.436;2023-01-19T06:02:26;99484.75;;;-0.30;100.00
32109;BME280;18624;50.042;8.436;2023-01-19T06:04:55;99486.28;;;-0.29;100.00
32109;BME280;18624;50.042;8.436;2023-01-19T06:07:22;99484.75;;;-0.26;100.00
32109;BME280;18624;50.042;8.436;2023-01-19T06:09:50;99480.91;;;-0.25;100.00
32109;BME280;18624;50.042;8.436;2023-01-19T06:12:17;99489.38;;;-0.23;100.00
32109;BME280;18624;50.042;8.436;2023-01-19T06:14:44;99487.09;;;-0.21;100.00
32109;BME280;18624;50.042;8.436;2023-01-19T06:17:10;99493.63;;;-0.18;100.00
32109;BME280;18624;50.042;8.436;2023-01-19T06:19:36;99499.81;;;-0.18;100.00
32109;BME280;18624;50.042;8.436;2023-01-19T06:22:03;99498.28;;;-0.15;100.00
32109;BME280;18624;50.042;8.436;2023-01-19T06:24:29;99512.91;;;-0.13;100.00
32109;BME280;18624;50.042;8.436;2023-01-19T06:26:55;99509.47;;;-0.10;100.00
32109;BME280;18624;50.042;8.436;2023-01-19T06:29:22;99496.75;;;-0.09;100.00
32109;BME280;18624;50.042;8.436;2023-01-19T06:31:48;99507.56;;;-0.02;100.00
32109;BME280;18624;50.042;8.436;2023-01-19T06:34:15;99510.69;;;0.00;100.00
32109;BME280;18624;50.042;8.436;2023-01-19T06:36:41;99506.44;;;0.03;100.00
32109;BME280;18624;50.042;8.436;2023-01-19T06:39:08;99453.56;;;-0.34;100.00
32109;BME280;18624;50.042;8.436;2023-01-19T06:41:35;99500.63;;;-0.07;100.00
32109;BME280;18624;50.042;8.436;2023-01-19T06:44:02;99475.09;;;-0.34;100.00
32109;BME280;18624;50.042;8.436;2023-01-19T06:46:29;99510.94;;;-0.19;100.00
32109;BME280;18624;50.042;8.436;2023-01-19T06:48:56;99460.03;;;-0.42;100.00
32109;BME280;18624;50.042;8.436;2023-01-19T06:51:22;99501.00;;;-0.12;100.00
32109;BME280;18624;50.042;8.436;2023-01-19T06:53:49;99509.47;;;-0.10;100.00
32109;BME280;18624;50.042;8.436;2023-01-19T06:56:15;99502.94;;;-0.09;100.00
32109;BME280;18624;50.042;8.436;2023-01-19T06:58:42;99508.31;;;-0.05;100.00
32109;BME280;18624;50.042;8.436;2023-01-19T07:01:09;99514.13;;;-0.03;100.00
32109;BME280;18624;50.042;8.436;2023-01-19T07:03:36;99518.00;;;0.03;100.00
32109;BME280;18624;50.042;8.436;2023-01-19T07:06:04;99499.47;;;-0.06;100.00
32109;BME280;18624;50.042;8.436;2023-01-19T07:08:33;99505.72;;;0.09;100.00
32109;BME280;18624;50.042;8.436;2023-01-19T07:11:05;99508.03;;;0.14;100.00
32109;BME280;18624;50.042;8.436;2023-01-19T07:13:53;99502.25;;;0.12;100.00
32109;BME280;18624;50.042;8.436;2023-01-19T07:16:19;99469.06;;;-0.13;100.00
32109;BME280;18624;50.042;8.436;2023-01-19T07:18:47;99488.34;;;0.03;100.00
32109;BME280;18624;50.042;8.436;2023-01-19T07:21:13;99479.91;;;0.05;100.00
32109;BME280;18624;50.042;8.436;2023-01-19T07:23:41;99495.25;;;-0.03;100.00
32109;BME280;18624;50.042;8.436;2023-01-19T07:26:09;99498.31;;;-0.08;100.00
32109;BME280;18624;50.042;8.436;2023-01-19T07:28:35;99506.75;;;-0.13;100.00
32109;BME280;18624;50.042;8.436;2023-01-19T07:31:02;99509.81;;;-0.15;100.00
32109;BME280;18624;50.042;8.436;2023-01-19T07:33:29;99520.56;;;-0.18;100.00
32109;BME280;18624;50.042;8.436;2023-01-19T07:35:55;99517.50;;;-0.20;100.00
32109;BME280;18624;50.042;8.436;2023-01-19T07:38:22;99515.56;;;-0.20;100.00
32109;BME280;18624;50.042;8.436;2023-01-19T07:40:49;99519.78;;;-0.19;100.00
32109;BME280;18624;50.042;8.436;2023-01-19T07:43:18;99513.25;;;-0.21;100.00
32109;BME280;18624;50.042;8.436;2023-01-19T07:45:46;99518.63;;;-0.25;100.00
32109;BME280;18624;50.042;8.436;2023-01-19T07:48:13;99524.06;;;-0.18;100.00
32109;BME280;18624;50.042;8.436;2023-01-19T07:50:39;99527.13;;;-0.16;100.00
32109;BME280;18624;50.042;8.436;2023-01-19T07:53:07;99521.72;;;-0.19;100.00
32109;BME280;18624;50.042;8.436;2023-01-19T07:55:34;99526.69;;;-0.25;100.00
32109;BME280;18624;50.042;8.436;2023-01-19T07:58:00;99521.69;;;-0.23;100.00
32109;BME280;18624;50.042;8.436;2023-01-19T08:00:30;99507.03;;;-0.33;100.00
32109;BME280;18624;50.042;8.436;2023-01-19T08:02:59;99544.03;;;-0.22;100.00
32109;BME280;18624;50.042;8.436;2023-01-19T08:05:27;99532.47;;;-0.27;100.00
32109;BME280;18624;50.042;8.436;2023-01-19T08:07:57;99469.88;;;-0.68;100.00
32109;BME280;18624;50.042;8.436;2023-01-19T08:10:25;99528.22;;;-0.28;100.00
32109;BME280;18624;50.042;8.436;2023-01-19T08:12:53;99519.34;;;-0.35;100.00
32109;BME280;18624;50.042;8.436;2023-01-19T08:15:20;99531.28;;;-0.29;100.00
32109;BME280;18624;50.042;8.436;2023-01-19T08:20:23;99529.03;;;-0.20;100.00
32109;BME280;18624;50.042;8.436;2023-01-19T08:22:50;99534.47;;;-0.09;100.00
32109;BME280;18624;50.042;8.436;2023-01-19T08:25:16;99534.91;;;-0.04;100.00
32109;BME280;18624;50.042;8.436;2023-01-19T08:27:43;99530.31;;;0.01;100.00
32109;BME280;18624;50.042;8.436;2023-01-19T08:30:10;99541.50;;;0.06;100.00
32109;BME280;18624;50.042;8.436;2023-01-19T08:32:36;99541.16;;;0.15;100.00
32109;BME280;18624;50.042;8.436;2023-01-19T08:35:03;99527.69;;;0.15;100.00
32109;BME280;18624;50.042;8.436;2023-01-19T08:37:30;99538.06;;;0.16;100.00
32109;BME280;18624;50.042;8.436;2023-01-19T08:39:59;99531.16;;;0.19;100.00
32109;BME280;18624;50.042;8.436;2023-01-19T08:42:25;99499.91;;;0.00;100.00
32109;BME280;18624;50.042;8.436;2023-01-19T08:44:52;99540.81;;;0.23;100.00
32109;BME280;18624;50.042;8.436;2023-01-19T08:47:23;99537.72;;;0.25;100.00
32109;BME280;18624;50.042;8.436;2023-01-19T08:49:50;99535.78;;;0.25;100.00
32109;BME280;18624;50.042;8.436;2023-01-19T08:52:16;99533.50;;;0.28;100.00
32109;BME280;18624;50.042;8.436;2023-01-19T08:54:43;99548.13;;;0.30;100.00
32109;BME280;18624;50.042;8.436;2023-01-19T08:57:09;99545.47;;;0.37;100.00
32109;BME280;18624;50.042;8.436;2023-01-19T08:59:35;99542.44;;;0.46;100.00
32109;BME280;18624;50.042;8.436;2023-01-19T09:02:03;99542.06;;;0.51;100.00
32109;BME280;18624;50.042;8.436;2023-01-19T09:04:30;99552.09;;;0.61;100.00
32109;BME280;18624;50.042;8.436;2023-01-19T09:06:59;99553.66;;;0.69;100.00
32109;BME280;18624;50.042;8.436;2023-01-19T09:09:26;99557.53;;;0.75;100.00
32109;BME280;18624;50.042;8.436;2023-01-19T09:11:53;99555.63;;;0.83;100.00
32109;BME280;18624;50.042;8.436;2023-01-19T09:14:20;99559.88;;;0.88;100.00
32109;BME280;18624;50.042;8.436;2023-01-19T09:16:50;99566.06;;;0.99;100.00
32109;BME280;18624;50.042;8.436;2023-01-19T09:19:17;99533.28;;;0.86;100.00
32109;BME280;18624;50.042;8.436;2023-01-19T09:21:43;99564.16;;;1.10;100.00
32109;BME280;18624;50.042;8.436;2023-01-19T09:24:10;99561.84;;;1.05;100.00
32109;BME280;18624;50.042;8.436;2023-01-19T09:26:37;99566.47;;;1.12;100.00
32109;BME280;18624;50.042;8.436;2023-01-19T09:29:05;99568.41;;;1.15;100.00
32109;BME280;18624;50.042;8.436;2023-01-19T09:31:32;99564.16;;;1.21;100.00
32109;BME280;18624;50.042;8.436;2023-01-19T09:33:58;99559.16;;;1.23;100.00
32109;BME280;18624;50.042;8.436;2023-01-19T09:36:25;99560.69;;;1.24;100.00
32109;BME280;18624;50.042;8.436;2023-01-19T09:38:51;99557.59;;;1.25;100.00
32109;BME280;18624;50.042;8.436;2023-01-19T09:41:19;99562.25;;;1.29;100.00
32109;BME280;18624;50.042;8.436;2023-01-19T09:43:54;99563.38;;;1.35;100.00
32109;BME280;18624;50.042;8.436;2023-01-19T09:46:35;99572.28;;;1.42;100.00
32109;BME280;18624;50.042;8.436;2023-01-19T09:49:15;99566.88;;;1.49;100.00
32109;BME280;18624;50.042;8.436;2023-01-19T09:51:49;99566.09;;;1.56;100.00
32109;BME280;18624;50.042;8.436;2023-01-19T09:54:28;99573.81;;;1.65;100.00
32109;BME280;18624;50.042;8.436;2023-01-19T09:56:55;99558.78;;;1.64;100.00
32109;BME280;18624;50.042;8.436;2023-01-19T09:59:28;99566.84;;;1.78;100.00
32109;BME280;18624;50.042;8.436;2023-01-19T10:04:58;99568.00;;;1.91;100.00
32109;BME280;18624;50.042;8.436;2023-01-19T10:07:32;99566.06;;;1.95;100.00
32109;BME280;18624;50.042;8.436;2023-01-19T10:13:13;99582.63;;;2.08;100.00
32109;BME280;18624;50.042;8.436;2023-01-19T10:18:24;99577.19;;;2.19;100.00
32109;BME280;18624;50.042;8.436;2023-01-19T10:21:03;99576.41;;;2.22;100.00
32109;BME280;18624;50.042;8.436;2023-01-19T10:26:31;99581.44;;;2.20;100.00
32109;BME280;18624;50.042;8.436;2023-01-19T10:29:14;99579.13;;;2.22;100.00
32109;BME280;18624;50.042;8.436;2023-01-19T10:31:44;99576.06;;;2.16;100.00
32109;BME280;18624;50.042;8.436;2023-01-19T10:34:11;99547.13;;;1.95;100.00
32109;BME280;18624;50.042;8.436;2023-01-19T10:36:49;99583.38;;;2.19;100.00
32109;BME280;18624;50.042;8.436;2023-01-19T10:39:18;99576.78;;;2.20;100.00
32109;BME280;18624;50.042;8.436;2023-01-19T10:41:49;99580.66;;;2.19;100.00
32109;BME280;18624;50.042;8.436;2023-01-19T10:44:24;99560.63;;;2.02;100.00
32109;BME280;18624;50.042;8.436;2023-01-19T10:46:52;99562.16;;;2.07;100.00
32109;BME280;18624;50.042;8.436;2023-01-19T10:49:38;99583.38;;;2.16;100.00
32109;BME280;18624;50.042;8.436;2023-01-19T10:52:07;99575.25;;;2.16;100.00
32109;BME280;18624;50.042;8.436;2023-01-19T10:54:44;99566.00;;;2.13;100.00
32109;BME280;18624;50.042;8.436;2023-01-19T10:57:24;99578.72;;;2.20;100.00
32109;BME280;18624;50.042;8.436;2023-01-19T10:59:53;99578.34;;;2.18;100.00
32109;BME280;18624;50.042;8.436;2023-01-19T11:02:21;99583.75;;;2.14;100.00
32109;BME280;18624;50.042;8.436;2023-01-19T11:05:22;99582.22;;;2.13;100.00
32109;BME280;18624;50.042;8.436;2023-01-19T11:07:48;99583.00;;;2.07;100.00
32109;BME280;18624;50.042;8.436;2023-01-19T11:12:44;99576.09;;;1.95;100.00
32109;BME280;18624;50.042;8.436;2023-01-19T11:17:46;99583.41;;;2.01;100.00
32109;BME280;18624;50.042;8.436;2023-01-19T11:20:27;99578.41;;;1.93;100.00
32109;BME280;18624;50.042;8.436;2023-01-19T11:23:22;99579.56;;;1.99;100.00
32109;BME280;18624;50.042;8.436;2023-01-19T11:25:51;99587.28;;;2.00;100.00
32109;BME280;18624;50.042;8.436;2023-01-19T11:28:23;99590.34;;;2.02;100.00
32109;BME280;18624;50.042;8.436;2023-01-19T11:30:58;99581.47;;;2.06;100.00
32109;BME280;18624;50.042;8.436;2023-01-19T11:33:36;99582.63;;;2.08;100.00
32109;BME280;18624;50.042;8.436;2023-01-19T11:36:14;99594.97;;;2.06;100.00
32109;BME280;18624;50.042;8.436;2023-01-19T11:38:43;99590.75;;;2.05;100.00
32109;BME280;18624;50.042;8.436;2023-01-19T11:41:32;99591.91;;;2.03;100.00
32109;BME280;18624;50.042;8.436;2023-01-19T11:44:15;99581.88;;;1.93;100.00
32109;BME280;18624;50.042;8.436;2023-01-19T11:46:44;99589.59;;;1.95;100.00
32109;BME280;18624;50.042;8.436;2023-01-19T11:54:40;99575.69;;;2.00;100.00
32109;BME280;18624;50.042;8.436;2023-01-19T11:57:13;99572.59;;;2.01;100.00
32109;BME280;18624;50.042;8.436;2023-01-19T11:59:40;99570.66;;;2.06;100.00
32109;BME280;18624;50.042;8.436;2023-01-19T12:02:17;99571.03;;;2.11;100.00
32109;BME280;18624;50.042;8.436;2023-01-19T12:04:48;99562.94;;;2.04;100.00
32109;BME280;18624;50.042;8.436;2023-01-19T12:07:21;99570.25;;;2.14;100.00
32109;BME280;18624;50.042;8.436;2023-01-19T12:09:52;99568.31;;;2.18;100.00
32109;BME280;18624;50.042;8.436;2023-01-19T12:12:31;99577.59;;;2.17;100.00
32109;BME280;18624;50.042;8.436;2023-01-19T12:15:09;99573.31;;;2.20;100.00
32109;BME280;18624;50.042;8.436;2023-01-19T12:17:47;99541.72;;;1.99;100.00
32109;BME280;18624;50.042;8.436;2023-01-19T12:20:36;99574.47;;;2.22;100.00
32109;BME280;18624;50.042;8.436;2023-01-19T12:28:30;99574.47;;;2.26;100.00
32109;BME280;18624;50.042;8.436;2023-01-19T12:30:59;99573.66;;;2.29;100.00
32109;BME280;18624;50.042;8.436;2023-01-19T12:33:34;99571.38;;;2.31;100.00
32109;BME280;18624;50.042;8.436;2023-01-19T12:36:33;99562.06;;;2.36;100.00
32109;BME280;18624;50.042;8.436;2023-01-19T12:39:16;99570.19;;;2.39;100.00
32109;BME280;18624;50.042;8.436;2023-01-19T12:41:44;99570.94;;;2.40;100.00
32109;BME280;18624;50.042;8.436;2023-01-19T12:46:57;99567.47;;;2.36;100.00
32109;BME280;18624;50.042;8.436;2023-01-19T12:49:34;99565.16;;;2.34;100.00
32109;BME280;18624;50.042;8.436;2023-01-19T12:52:31;99572.50;;;2.34;100.00
32109;BME280;18624;50.042;8.436;2023-01-19T13:00:38;99572.91;;;2.32;100.00
32109;BME280;18624;50.042;8.436;2023-01-19T13:05:50;99566.72;;;2.35;100.00
32109;BME280;18624;50.042;8.436;2023-01-19T13:08:22;99574.06;;;2.35;100.00
32109;BME280;18624;50.042;8.436;2023-01-19T13:13:30;99574.81;;;2.35;100.00
32109;BME280;18624;50.042;8.436;2023-01-19T13:18:47;99571.72;;;2.37;100.00
32109;BME280;18624;50.042;8.436;2023-01-19T13:23:59;99568.63;;;2.38;100.00
32109;BME280;18624;50.042;8.436;2023-01-19T13:26:31;99572.06;;;2.42;100.00
32109;BME280;18624;50.042;8.436;2023-01-19T13:29:27;99572.88;;;2.39;100.00
32109;BME280;18624;50.042;8.436;2023-01-19T13:32:03;99570.56;;;2.38;100.00
32109;BME280;18624;50.042;8.436;2023-01-19T13:34:40;99579.84;;;2.37;100.00
32109;BME280;18624;50.042;8.436;2023-01-19T13:37:17;99581.00;;;2.36;100.00
32109;BME280;18624;50.042;8.436;2023-01-19T13:39:45;99584.47;;;2.33;100.00
32109;BME280;18624;50.042;8.436;2023-01-19T13:42:26;99585.25;;;2.33;100.00
32109;BME280;18624;50.042;8.436;2023-01-19T13:44:57;99584.47;;;2.33;100.00
32109;BME280;18624;50.042;8.436;2023-01-19T13:47:34;99586.06;;;2.30;100.00
32109;BME280;18624;50.042;8.436;2023-01-19T13:50:04;99590.66;;;2.29;100.00
32109;BME280;18624;50.042;8.436;2023-01-19T13:52:31;99591.47;;;2.30;100.00
32109;BME280;18624;50.042;8.436;2023-01-19T13:55:00;99596.88;;;2.30;100.00
32109;BME280;18624;50.042;8.436;2023-01-19T13:57:38;99596.47;;;2.32;100.00
32109;BME280;18624;50.042;8.436;2023-01-19T14:02:59;99598.00;;;2.29;100.00
32109;BME280;18624;50.042;8.436;2023-01-19T14:05:32;99598.00;;;2.29;100.00
32109;BME280;18624;50.042;8.436;2023-01-19T14:13:27;99585.31;;;2.15;100.00
32109;BME280;18624;50.042;8.436;2023-01-19T14:16:03;99601.13;;;2.27;100.00
32109;BME280;18624;50.042;8.436;2023-01-19T14:18:35;99601.50;;;2.22;100.00